createdAt,value
2019-01-26T00:00:06.919Z,0
2019-01-26T00:01:07.378Z,0
2019-01-26T00:02:07.353Z,0
2019-01-26T00:03:07.348Z,0
2019-01-26T00:04:07.315Z,0
2019-01-26T00:05:07.315Z,0
2019-01-26T00:06:07.015Z,0
2019-01-26T00:07:07.262Z,0
2019-01-26T00:08:07.240Z,0
2019-01-26T00:09:07.203Z,0
2019-01-26T00:10:07.023Z,0
2019-01-26T00:11:07.328Z,0
2019-01-26T00:12:07.149Z,0
2019-01-26T00:13:07.167Z,0
2019-01-26T00:14:07.100Z,0
2019-01-26T00:15:07.084Z,0
2019-01-26T00:16:07.063Z,0
2019-01-26T00:17:07.044Z,0
2019-01-26T00:18:07.023Z,0
2019-01-26T00:19:07.005Z,0
2019-01-26T00:20:06.983Z,0
2019-01-26T00:21:19.692Z,0
2019-01-26T00:22:06.942Z,0
2019-01-26T00:23:06.922Z,0
2019-01-26T00:24:06.905Z,0
2019-01-26T00:25:06.646Z,0
2019-01-26T00:26:06.885Z,0
2019-01-26T00:27:06.585Z,0
2019-01-26T00:28:06.322Z,0
2019-01-26T00:29:06.797Z,0
2019-01-26T00:30:06.781Z,0
2019-01-26T00:31:06.502Z,0
2019-01-26T00:32:06.729Z,0
2019-01-26T00:33:06.718Z,0
2019-01-26T00:34:06.203Z,0
2019-01-26T00:35:06.676Z,0
2019-01-26T00:36:06.652Z,0
2019-01-26T00:37:06.627Z,0
2019-01-26T00:38:06.354Z,0
2019-01-26T00:39:06.581Z,0
2019-01-26T00:40:06.331Z,0
2019-01-26T00:41:06.547Z,0
2019-01-26T00:42:06.521Z,0
2019-01-26T00:43:06.499Z,0
2019-01-26T00:44:06.479Z,0
2019-01-26T00:45:06.475Z,0
2019-01-26T00:46:06.189Z,0
2019-01-26T00:47:06.175Z,0
2019-01-26T00:48:06.397Z,0
2019-01-26T00:49:06.369Z,0
2019-01-26T00:50:06.349Z,0
2019-01-26T00:51:06.329Z,0
2019-01-26T00:52:06.310Z,0
2019-01-26T00:53:06.289Z,0
2019-01-26T00:54:06.267Z,0
2019-01-26T00:55:06.250Z,0
2019-01-26T00:56:05.980Z,0
2019-01-26T00:57:06.218Z,0
2019-01-26T00:58:05.940Z,0
2019-01-26T00:59:06.184Z,0
2019-01-26T01:00:06.150Z,0
2019-01-26T01:01:06.126Z,0
2019-01-26T01:02:06.107Z,0
2019-01-26T01:03:06.091Z,0
2019-01-26T01:04:05.820Z,0
2019-01-26T01:05:06.040Z,0
2019-01-26T01:06:06.018Z,0
2019-01-26T01:07:06.001Z,0
2019-01-26T01:08:05.976Z,0
2019-01-26T01:09:05.717Z,0
2019-01-26T01:10:05.939Z,0
2019-01-26T01:11:05.919Z,0
2019-01-26T01:12:05.892Z,0
2019-01-26T01:13:05.874Z,0
2019-01-26T01:14:05.851Z,0
2019-01-26T01:15:05.829Z,0
2019-01-26T01:16:05.807Z,0
2019-01-26T01:17:05.793Z,0
2019-01-26T01:18:05.525Z,0
2019-01-26T01:19:05.673Z,0
2019-01-26T01:20:05.731Z,0
2019-01-26T01:21:06.708Z,0
2019-01-26T01:22:05.438Z,0
2019-01-26T01:23:05.416Z,0
2019-01-26T01:24:05.661Z,0
2019-01-26T01:25:05.435Z,0
2019-01-26T01:26:05.639Z,0
2019-01-26T01:27:05.593Z,0
2019-01-26T01:28:05.589Z,0
2019-01-26T01:29:05.542Z,0
2019-01-26T01:30:05.270Z,0
2019-01-26T01:31:05.498Z,0
2019-01-26T01:32:05.478Z,0
2019-01-26T01:33:04.959Z,0
2019-01-26T01:34:05.438Z,0
2019-01-26T01:35:05.411Z,0
2019-01-26T01:36:05.388Z,0
2019-01-26T01:37:05.376Z,0
2019-01-26T01:38:05.352Z,0
2019-01-26T01:39:04.838Z,0
2019-01-26T01:40:05.304Z,0
2019-01-26T01:41:05.288Z,0
2019-01-26T01:42:05.271Z,0
2019-01-26T01:43:05.250Z,0
2019-01-26T01:44:05.229Z,0
2019-01-26T01:45:04.960Z,0
2019-01-26T01:46:05.181Z,0
2019-01-26T01:47:05.157Z,0
2019-01-26T01:48:04.895Z,0
2019-01-26T01:49:05.129Z,0
2019-01-26T01:50:05.102Z,0
2019-01-26T01:51:05.077Z,0
2019-01-26T01:52:05.076Z,0
2019-01-26T01:53:04.788Z,0
2019-01-26T01:54:04.771Z,0
2019-01-26T01:55:04.749Z,0
2019-01-26T01:56:04.980Z,0
2019-01-26T01:57:04.955Z,0
2019-01-26T01:58:04.931Z,0
2019-01-26T01:59:05.018Z,0
2019-01-26T02:00:04.909Z,0
2019-01-26T02:01:04.877Z,0
2019-01-26T02:02:04.843Z,0
2019-01-26T02:03:04.828Z,0
2019-01-26T02:04:04.808Z,0
2019-01-26T02:05:04.826Z,0
2019-01-26T02:06:04.769Z,0
2019-01-26T02:07:04.745Z,0
2019-01-26T02:08:04.476Z,0
2019-01-26T02:09:04.701Z,0
2019-01-26T02:10:04.684Z,0
2019-01-26T02:11:04.661Z,0
2019-01-26T02:12:04.396Z,0
2019-01-26T02:13:04.618Z,0
2019-01-26T02:14:04.597Z,0
2019-01-26T02:15:04.578Z,0
2019-01-26T02:16:04.313Z,0
2019-01-26T02:17:04.286Z,0
2019-01-26T02:18:04.518Z,0
2019-01-26T02:19:04.501Z,0
2019-01-26T02:20:04.479Z,0
2019-01-26T02:21:04.450Z,0
2019-01-26T02:22:04.429Z,0
2019-01-26T02:23:04.417Z,0
2019-01-26T02:24:04.385Z,0
2019-01-26T02:25:04.372Z,0
2019-01-26T02:26:04.647Z,0
2019-01-26T02:27:04.327Z,0
2019-01-26T02:28:04.314Z,0
2019-01-26T02:29:04.038Z,0
2019-01-26T02:30:04.298Z,0
2019-01-26T02:31:04.279Z,0
2019-01-26T02:32:04.235Z,0
2019-01-26T02:33:04.206Z,0
2019-01-26T02:34:04.183Z,0
2019-01-26T02:35:04.157Z,0
2019-01-26T02:36:03.894Z,0
2019-01-26T02:37:04.129Z,0
2019-01-26T02:38:04.116Z,0
2019-01-26T02:39:04.092Z,0
2019-01-26T02:40:04.065Z,0
2019-01-26T02:41:04.038Z,0
2019-01-26T02:42:04.020Z,0
2019-01-26T02:43:04.014Z,0
2019-01-26T02:44:03.979Z,0
2019-01-26T02:45:03.959Z,0
2019-01-26T02:46:04.045Z,0
2019-01-26T02:47:05.383Z,0
2019-01-26T02:48:03.902Z,0
2019-01-26T02:49:03.883Z,0
2019-01-26T02:50:03.626Z,0
2019-01-26T02:51:03.827Z,0
2019-01-26T02:52:03.582Z,0
2019-01-26T02:53:03.896Z,0
2019-01-26T02:54:03.775Z,0
2019-01-26T02:55:03.751Z,0
2019-01-26T02:56:03.479Z,0
2019-01-26T02:57:03.724Z,0
2019-01-26T02:58:03.687Z,0
2019-01-26T02:59:03.418Z,0
2019-01-26T03:00:03.655Z,0
2019-01-26T03:01:03.377Z,0
2019-01-26T03:02:03.609Z,0
2019-01-26T03:03:03.581Z,0
2019-01-26T03:04:03.561Z,0
2019-01-26T03:05:03.545Z,0
2019-01-26T03:06:03.528Z,0
2019-01-26T03:07:03.510Z,0
2019-01-26T03:08:03.226Z,0
2019-01-26T03:09:03.459Z,0
2019-01-26T03:10:03.432Z,0
2019-01-26T03:11:03.418Z,0
2019-01-26T03:12:03.163Z,0
2019-01-26T03:13:03.380Z,0
2019-01-26T03:14:03.348Z,0
2019-01-26T03:15:03.330Z,0
2019-01-26T03:16:03.152Z,0
2019-01-26T03:17:10.610Z,0
2019-01-26T03:18:03.026Z,0
2019-01-26T03:19:03.254Z,0
2019-01-26T03:20:03.229Z,0
2019-01-26T03:21:02.958Z,0
2019-01-26T03:22:02.937Z,0
2019-01-26T03:23:02.921Z,0
2019-01-26T03:24:03.148Z,0
2019-01-26T03:25:02.873Z,0
2019-01-26T03:26:02.853Z,0
2019-01-26T03:27:03.077Z,0
2019-01-26T03:28:02.833Z,0
2019-01-26T03:29:02.790Z,0
2019-01-26T03:30:02.908Z,0
2019-01-26T03:31:03.051Z,0
2019-01-26T03:32:02.767Z,0
2019-01-26T03:33:02.992Z,0
2019-01-26T03:34:02.704Z,0
2019-01-26T03:35:02.922Z,0
2019-01-26T03:36:02.645Z,0
2019-01-26T03:37:02.903Z,0
2019-01-26T03:38:02.861Z,0
2019-01-26T03:39:02.838Z,0
2019-01-26T03:40:02.815Z,0
2019-01-26T03:41:02.573Z,0
2019-01-26T03:42:02.532Z,0
2019-01-26T03:43:02.512Z,0
2019-01-26T03:44:02.732Z,0
2019-01-26T03:45:02.478Z,0
2019-01-26T03:46:02.706Z,0
2019-01-26T03:47:02.672Z,0
2019-01-26T03:48:02.655Z,0
2019-01-26T03:49:02.656Z,0
2019-01-26T03:50:02.617Z,0
2019-01-26T03:51:02.336Z,0
2019-01-26T03:52:02.585Z,0
2019-01-26T03:53:02.292Z,0
2019-01-26T03:54:02.526Z,0
2019-01-26T03:55:02.583Z,0
2019-01-26T03:56:02.477Z,0
2019-01-26T03:57:02.485Z,0
2019-01-26T03:58:02.449Z,0
2019-01-26T03:59:02.423Z,0
2019-01-26T04:00:02.218Z,0
2019-01-26T04:01:02.389Z,0
2019-01-26T04:02:02.113Z,0
2019-01-26T04:03:02.341Z,0
2019-01-26T04:04:02.312Z,0
2019-01-26T04:05:02.295Z,0
2019-01-26T04:06:02.281Z,0
2019-01-26T04:07:02.248Z,0
2019-01-26T04:08:02.228Z,0
2019-01-26T04:09:02.218Z,0
2019-01-26T04:10:02.188Z,0
2019-01-26T04:11:01.920Z,0
2019-01-26T04:12:01.901Z,0
2019-01-26T04:13:02.121Z,0
2019-01-26T04:14:01.867Z,0
2019-01-26T04:15:02.106Z,0
2019-01-26T04:16:02.070Z,0
2019-01-26T04:17:01.805Z,0
2019-01-26T04:18:02.018Z,0
2019-01-26T04:19:02.005Z,0
2019-01-26T04:20:01.989Z,0
2019-01-26T04:21:01.965Z,0
2019-01-26T04:22:01.700Z,0
2019-01-26T04:23:01.679Z,0
2019-01-26T04:24:01.898Z,0
2019-01-26T04:25:01.885Z,0
2019-01-26T04:26:01.861Z,0
2019-01-26T04:27:01.585Z,0
2019-01-26T04:28:01.820Z,0
2019-01-26T04:29:01.822Z,0
2019-01-26T04:30:01.785Z,0
2019-01-26T04:31:01.511Z,0
2019-01-26T04:32:01.760Z,0
2019-01-26T04:33:01.716Z,0
2019-01-26T04:34:01.691Z,0
2019-01-26T04:35:01.678Z,0
2019-01-26T04:36:01.646Z,0
2019-01-26T04:37:01.638Z,0
2019-01-26T04:38:01.361Z,0
2019-01-26T04:39:01.597Z,0
2019-01-26T04:40:01.324Z,0
2019-01-26T04:41:01.303Z,0
2019-01-26T04:42:01.544Z,0
2019-01-26T04:43:01.530Z,0
2019-01-26T04:44:01.487Z,0
2019-01-26T04:45:01.478Z,0
2019-01-26T04:46:01.202Z,0
2019-01-26T04:47:01.455Z,0
2019-01-26T04:48:01.188Z,0
2019-01-26T04:49:01.387Z,0
2019-01-26T04:50:01.359Z,0
2019-01-26T04:51:01.344Z,0
2019-01-26T04:52:01.334Z,0
2019-01-26T04:53:01.301Z,0
2019-01-26T04:54:01.327Z,0
2019-01-26T04:55:01.252Z,0
2019-01-26T04:56:01.243Z,0
2019-01-26T04:57:01.216Z,0
2019-01-26T04:58:01.192Z,0
2019-01-26T04:59:00.941Z,0
2019-01-26T05:00:01.159Z,0
2019-01-26T05:01:01.171Z,0
2019-01-26T05:02:00.870Z,0
2019-01-26T05:03:00.847Z,0
2019-01-26T05:04:01.072Z,0
2019-01-26T05:05:01.050Z,0
2019-01-26T05:06:00.777Z,0
2019-01-26T05:07:01.011Z,0
2019-01-26T05:08:00.745Z,0
2019-01-26T05:09:00.716Z,0
2019-01-26T05:10:00.947Z,0
2019-01-26T05:11:01.028Z,0
2019-01-26T05:12:00.913Z,0
2019-01-26T05:13:00.888Z,0
2019-01-26T05:14:00.864Z,0
2019-01-26T05:15:00.842Z,0
2019-01-26T05:16:00.572Z,0
2019-01-26T05:17:00.810Z,0
2019-01-26T05:18:00.534Z,0
2019-01-26T05:19:00.763Z,0
2019-01-26T05:20:00.745Z,0
2019-01-26T05:21:00.483Z,0
2019-01-26T05:22:00.699Z,0
2019-01-26T05:23:00.440Z,0
2019-01-26T05:24:00.660Z,0
2019-01-26T05:25:00.643Z,0
2019-01-26T05:26:00.379Z,0
2019-01-26T05:27:00.601Z,0
2019-01-26T05:28:00.579Z,0
2019-01-26T05:29:00.557Z,0
2019-01-26T05:30:00.633Z,0
2019-01-26T05:31:00.267Z,0
2019-01-26T05:32:00.501Z,0
2019-01-26T05:33:00.226Z,0
2019-01-26T05:34:00.206Z,0
2019-01-26T05:35:00.433Z,0
2019-01-26T05:36:00.525Z,0
2019-01-26T05:37:00.396Z,0
2019-01-26T05:38:00.389Z,0
2019-01-26T05:39:00.116Z,0
2019-01-26T05:40:00.333Z,0
2019-01-26T05:41:00.316Z,0
2019-01-26T05:42:00.290Z,0
2019-01-26T05:43:00.274Z,0
2019-01-26T05:44:00.261Z,0
2019-01-26T05:45:00.266Z,0
2019-01-26T05:46:00.210Z,0
2019-01-26T05:46:59.941Z,0
2019-01-26T05:47:59.997Z,0
2019-01-26T05:49:00.146Z,0
2019-01-26T05:50:00.309Z,0
2019-01-26T05:51:00.106Z,0
2019-01-26T05:52:00.089Z,0
2019-01-26T05:53:00.066Z,0
2019-01-26T05:53:59.795Z,0
2019-01-26T05:55:00.022Z,0
2019-01-26T05:56:00.006Z,0
2019-01-26T05:56:59.992Z,0
2019-01-26T05:57:59.973Z,0
2019-01-26T05:59:00.357Z,0
2019-01-26T05:59:59.937Z,0
2019-01-26T06:00:59.653Z,0
2019-01-26T06:01:59.647Z,0
2019-01-26T06:02:59.870Z,0
2019-01-26T06:03:59.846Z,0
2019-01-26T06:04:59.830Z,0
2019-01-26T06:05:59.802Z,0
2019-01-26T06:06:59.784Z,0
2019-01-26T06:07:59.543Z,0
2019-01-26T06:08:59.747Z,0
2019-01-26T06:09:59.720Z,0
2019-01-26T06:10:59.696Z,0
2019-01-26T06:11:59.681Z,0
2019-01-26T06:13:01.332Z,0
2019-01-26T06:13:59.644Z,0
2019-01-26T06:14:59.378Z,0
2019-01-26T06:15:59.603Z,0
2019-01-26T06:16:59.585Z,0
2019-01-26T06:18:02.470Z,0
2019-01-26T06:18:59.537Z,0
2019-01-26T06:19:59.516Z,0
2019-01-26T06:20:59.496Z,0
2019-01-26T06:21:59.478Z,0
2019-01-26T06:22:59.465Z,0
2019-01-26T06:23:59.186Z,0
2019-01-26T06:24:59.172Z,0
2019-01-26T06:25:59.403Z,0
2019-01-26T06:26:59.376Z,0
2019-01-26T06:27:59.113Z,0
2019-01-26T06:28:59.339Z,0
2019-01-26T06:29:58.821Z,0
2019-01-26T06:30:59.294Z,0
2019-01-26T06:31:59.277Z,0
2019-01-26T06:32:59.254Z,0
2019-01-26T06:33:58.991Z,0
2019-01-26T06:34:59.217Z,4
2019-01-26T06:35:58.706Z,4
2019-01-26T06:36:59.341Z,4
2019-01-26T06:37:58.909Z,0
2019-01-26T06:39:00.422Z,4
2019-01-26T06:39:59.116Z,4
2019-01-26T06:40:58.847Z,4
2019-01-26T06:41:58.850Z,4
2019-01-26T06:42:59.051Z,8
2019-01-26T06:43:59.076Z,4
2019-01-26T06:44:59.033Z,8
2019-01-26T06:45:58.991Z,8
2019-01-26T06:46:58.967Z,8
2019-01-26T06:48:04.633Z,12
2019-01-26T06:48:58.686Z,12
2019-01-26T06:49:58.665Z,12
2019-01-26T06:50:58.894Z,12
2019-01-26T06:51:58.380Z,12
2019-01-26T06:52:58.863Z,16
2019-01-26T06:53:58.585Z,16
2019-01-26T06:56:53.553Z,24
2019-01-26T06:57:03.263Z,20
2019-01-26T06:58:03.487Z,24
2019-01-26T06:59:03.470Z,32
2019-01-26T07:00:03.450Z,32
2019-01-26T07:01:03.478Z,36
2019-01-26T07:02:03.453Z,40
2019-01-26T07:03:02.946Z,40
2019-01-26T07:04:03.419Z,40
2019-01-26T07:05:03.153Z,44
2019-01-26T07:06:03.379Z,44
2019-01-26T07:07:03.108Z,52
2019-01-26T07:08:03.338Z,60
2019-01-26T07:09:03.063Z,64
2019-01-26T07:10:03.301Z,72
2019-01-26T07:11:04.618Z,72
2019-01-26T07:12:03.263Z,80
2019-01-26T07:13:03.247Z,76
2019-01-26T07:14:02.970Z,84
2019-01-26T07:15:03.204Z,92
2019-01-26T07:16:03.177Z,96
2019-01-26T07:17:03.163Z,100
2019-01-26T07:18:09.103Z,108
2019-01-26T07:19:03.117Z,112
2019-01-26T07:20:03.117Z,112
2019-01-26T07:21:02.831Z,124
2019-01-26T07:22:02.815Z,124
2019-01-26T07:23:02.792Z,140
2019-01-26T07:24:02.767Z,148
2019-01-26T07:25:03.000Z,160
2019-01-26T07:26:02.976Z,168
2019-01-26T07:27:02.964Z,168
2019-01-26T07:28:02.943Z,180
2019-01-26T07:29:02.914Z,180
2019-01-26T07:30:02.955Z,184
2019-01-26T07:31:02.881Z,196
2019-01-26T07:32:02.621Z,204
2019-01-26T07:33:02.845Z,216
2019-01-26T07:34:02.576Z,224
2019-01-26T07:35:02.567Z,240
2019-01-26T07:36:02.780Z,252
2019-01-26T07:37:02.756Z,260
2019-01-26T07:38:02.495Z,256
2019-01-26T07:39:02.723Z,256
2019-01-26T07:40:02.700Z,260
2019-01-26T07:41:02.428Z,260
2019-01-26T07:42:02.655Z,272
2019-01-26T07:43:02.392Z,296
2019-01-26T07:44:02.630Z,320
2019-01-26T07:45:02.607Z,340
2019-01-26T07:46:02.330Z,348
2019-01-26T07:47:02.563Z,356
2019-01-26T07:48:02.540Z,372
2019-01-26T07:49:02.526Z,376
2019-01-26T07:50:02.623Z,396
2019-01-26T07:51:02.483Z,396
2019-01-26T07:52:02.461Z,396
2019-01-26T07:53:02.194Z,400
2019-01-26T07:54:02.178Z,424
2019-01-26T07:55:02.395Z,436
2019-01-26T07:56:02.387Z,452
2019-01-26T07:57:02.371Z,464
2019-01-26T07:58:02.344Z,464
2019-01-26T07:59:02.073Z,456
2019-01-26T08:00:02.055Z,448
2019-01-26T08:01:02.287Z,436
2019-01-26T08:02:02.263Z,432
2019-01-26T08:03:02.249Z,420
2019-01-26T08:04:01.986Z,412
2019-01-26T08:05:02.202Z,412
2019-01-26T08:06:02.188Z,428
2019-01-26T08:07:01.915Z,436
2019-01-26T08:08:02.146Z,456
2019-01-26T08:09:02.128Z,484
2019-01-26T08:10:01.859Z,508
2019-01-26T08:11:02.086Z,520
2019-01-26T08:12:02.070Z,528
2019-01-26T08:13:02.050Z,556
2019-01-26T08:14:01.778Z,580
2019-01-26T08:15:01.763Z,584
2019-01-26T08:16:01.987Z,592
2019-01-26T08:17:01.760Z,592
2019-01-26T08:18:01.948Z,612
2019-01-26T08:19:01.437Z,644
2019-01-26T08:20:01.912Z,644
2019-01-26T08:21:01.892Z,632
2019-01-26T08:22:01.868Z,664
2019-01-26T08:23:01.850Z,684
2019-01-26T08:24:01.834Z,736
2019-01-26T08:25:01.318Z,776
2019-01-26T08:26:01.544Z,800
2019-01-26T08:27:01.526Z,796
2019-01-26T08:28:01.754Z,816
2019-01-26T08:29:01.737Z,860
2019-01-26T08:30:01.470Z,872
2019-01-26T08:31:01.694Z,876
2019-01-26T08:32:01.190Z,872
2019-01-26T08:33:01.753Z,864
2019-01-26T08:34:01.395Z,840
2019-01-26T08:35:01.616Z,840
2019-01-26T08:36:01.608Z,832
2019-01-26T08:37:01.579Z,784
2019-01-26T08:38:01.558Z,724
2019-01-26T08:39:01.554Z,732
2019-01-26T08:40:01.328Z,796
2019-01-26T08:41:01.250Z,936
2019-01-26T08:42:01.238Z,1100
2019-01-26T08:43:01.464Z,1204
2019-01-26T08:44:01.195Z,1188
2019-01-26T08:45:01.427Z,1096
2019-01-26T08:46:01.155Z,1000
2019-01-26T08:47:01.386Z,940
2019-01-26T08:48:01.369Z,984
2019-01-26T08:49:01.416Z,1060
2019-01-26T08:50:01.330Z,1148
2019-01-26T08:51:01.306Z,1236
2019-01-26T08:52:01.290Z,1292
2019-01-26T08:53:01.274Z,1320
2019-01-26T08:54:01.004Z,1320
2019-01-26T08:55:01.228Z,1268
2019-01-26T08:56:01.209Z,1224
2019-01-26T08:57:01.200Z,1252
2019-01-26T08:58:01.181Z,1380
2019-01-26T08:59:00.914Z,1472
2019-01-26T09:00:01.139Z,1504
2019-01-26T09:01:01.122Z,1488
2019-01-26T09:02:01.363Z,1432
2019-01-26T09:03:00.832Z,1368
2019-01-26T09:04:01.059Z,1324
2019-01-26T09:05:01.041Z,1380
2019-01-26T09:06:01.028Z,1464
2019-01-26T09:07:01.000Z,1544
2019-01-26T09:08:00.740Z,1604
2019-01-26T09:09:00.964Z,1660
2019-01-26T09:10:00.944Z,1660
2019-01-26T09:11:00.926Z,1608
2019-01-26T09:12:00.911Z,1524
2019-01-26T09:13:00.890Z,1488
2019-01-26T09:14:00.878Z,1432
2019-01-26T09:15:00.857Z,1452
2019-01-26T09:16:00.840Z,1424
2019-01-26T09:17:00.823Z,1420
2019-01-26T09:18:00.547Z,1440
2019-01-26T09:19:00.776Z,1464
2019-01-26T09:20:00.766Z,1452
2019-01-26T09:21:00.739Z,1472
2019-01-26T09:22:00.724Z,1500
2019-01-26T09:23:00.709Z,1508
2019-01-26T09:24:00.736Z,1484
2019-01-26T09:25:00.677Z,1464
2019-01-26T09:26:00.647Z,1484
2019-01-26T09:27:00.625Z,1500
2019-01-26T09:28:00.605Z,1456
2019-01-26T09:29:00.340Z,1392
2019-01-26T09:30:00.573Z,1488
2019-01-26T09:31:00.556Z,1516
2019-01-26T09:32:00.538Z,1452
2019-01-26T09:33:00.510Z,1400
2019-01-26T09:34:00.246Z,1420
2019-01-26T09:35:00.516Z,1488
2019-01-26T09:36:00.458Z,1504
2019-01-26T09:37:00.464Z,1504
2019-01-26T09:38:00.180Z,1472
2019-01-26T09:39:00.407Z,1420
2019-01-26T09:40:00.386Z,1384
2019-01-26T09:41:00.367Z,1428
2019-01-26T09:42:00.099Z,1516
2019-01-26T09:43:00.331Z,1564
2019-01-26T09:44:00.060Z,1580
2019-01-26T09:45:00.287Z,1564
2019-01-26T09:46:00.277Z,1516
2019-01-26T09:47:00.257Z,1464
2019-01-26T09:48:00.238Z,1460
2019-01-26T09:49:00.236Z,1452
2019-01-26T09:50:00.236Z,1428
2019-01-26T09:51:00.187Z,1504
2019-01-26T09:51:59.911Z,1572
2019-01-26T09:53:00.153Z,1644
2019-01-26T09:54:00.126Z,1684
2019-01-26T09:55:00.131Z,1736
2019-01-26T09:56:00.091Z,1652
2019-01-26T09:57:00.067Z,1544
2019-01-26T09:57:59.804Z,1560
2019-01-26T09:59:00.039Z,1532
2019-01-26T10:00:00.014Z,1492
2019-01-26T10:01:00.004Z,1416
2019-01-26T10:01:59.981Z,1448
2019-01-26T10:02:59.713Z,1560
2019-01-26T10:03:59.994Z,1628
2019-01-26T10:04:59.678Z,1628
2019-01-26T10:05:59.905Z,1600
2019-01-26T10:06:59.892Z,1600
2019-01-26T10:07:59.872Z,1692
2019-01-26T10:08:59.902Z,1672
2019-01-26T10:09:59.833Z,1572
2019-01-26T10:11:00.148Z,1512
2019-01-26T10:11:59.796Z,1504
2019-01-26T10:12:59.783Z,1544
2019-01-26T10:13:59.808Z,1488
2019-01-26T10:14:59.740Z,1356
2019-01-26T10:15:59.721Z,1280
2019-01-26T10:16:59.706Z,1260
2019-01-26T10:17:59.709Z,1332
2019-01-26T10:19:00.981Z,1364
2019-01-26T10:19:59.152Z,1468
2019-01-26T10:20:59.636Z,1456
2019-01-26T10:21:59.635Z,1408
2019-01-26T10:22:59.593Z,1464
2019-01-26T10:23:59.902Z,1524
2019-01-26T10:24:59.560Z,1504
2019-01-26T10:25:59.550Z,1464
2019-01-26T10:26:59.521Z,1516
2019-01-26T10:27:59.511Z,1520
2019-01-26T10:28:59.481Z,1524
2019-01-26T10:29:59.462Z,1560
2019-01-26T10:30:59.444Z,1508
2019-01-26T10:31:59.181Z,1592
2019-01-26T10:32:59.171Z,1596
2019-01-26T10:33:59.393Z,1500
2019-01-26T10:34:59.374Z,1488
2019-01-26T10:35:59.357Z,1564
2019-01-26T10:36:59.339Z,1648
2019-01-26T10:37:59.074Z,1652
2019-01-26T10:39:00.393Z,1584
2019-01-26T10:39:59.033Z,1540
2019-01-26T10:40:59.269Z,1484
2019-01-26T10:41:59.000Z,1492
2019-01-26T10:42:58.983Z,1580
2019-01-26T10:43:59.260Z,1604
2019-01-26T10:44:59.195Z,1496
2019-01-26T10:45:59.189Z,1428
2019-01-26T10:46:59.156Z,1420
2019-01-26T10:47:59.139Z,1424
2019-01-26T10:49:05.578Z,1460
2019-01-26T10:49:59.106Z,1528
2019-01-26T10:51:00.141Z,1528
2019-01-26T10:51:58.824Z,1392
2019-01-26T10:52:58.799Z,1248
2019-01-26T10:53:58.794Z,1236
2019-01-26T10:54:58.768Z,1348
2019-01-26T10:55:59.000Z,1368
2019-01-26T10:56:58.980Z,1316
2019-01-26T10:57:58.960Z,1216
2019-01-26T10:58:58.690Z,1152
2019-01-26T10:59:58.919Z,1132
2019-01-26T11:00:58.671Z,1216
2019-01-26T11:01:58.887Z,1276
2019-01-26T11:02:58.873Z,1312
2019-01-26T11:03:58.860Z,1364
2019-01-26T11:04:58.632Z,1300
2019-01-26T11:05:58.810Z,1308
2019-01-26T11:06:59.126Z,1272
2019-01-26T11:07:58.784Z,1340
2019-01-26T11:08:58.806Z,1284
2019-01-26T11:09:58.793Z,1296
2019-01-26T11:10:58.723Z,1348
2019-01-26T11:11:58.458Z,1352
2019-01-26T11:12:58.438Z,1256
2019-01-26T11:13:58.671Z,1200
2019-01-26T11:14:58.651Z,1204
2019-01-26T11:15:58.633Z,1284
2019-01-26T11:16:58.620Z,1308
2019-01-26T11:17:58.600Z,1320
2019-01-26T11:18:58.579Z,1292
2019-01-26T11:19:58.559Z,1272
2019-01-26T11:20:58.547Z,1248
2019-01-26T11:21:58.277Z,1252
2019-01-26T11:22:58.256Z,1264
2019-01-26T11:23:58.491Z,1332
2019-01-26T11:24:58.524Z,1352
2019-01-26T11:25:58.227Z,1268
2019-01-26T11:26:58.447Z,1144
2019-01-26T11:27:58.427Z,1092
2019-01-26T11:28:58.400Z,1108
2019-01-26T11:29:58.379Z,1128
2019-01-26T11:30:58.366Z,1160
2019-01-26T11:31:58.351Z,1164
2019-01-26T11:32:58.323Z,1208
2019-01-26T11:33:58.317Z,1168
2019-01-26T11:34:58.048Z,1168
2019-01-26T11:35:58.280Z,1164
2019-01-26T11:36:58.278Z,1188
2019-01-26T11:37:58.236Z,1268
2019-01-26T11:38:57.973Z,1328
2019-01-26T11:39:58.211Z,1288
2019-01-26T11:40:57.931Z,1248
2019-01-26T11:41:58.161Z,1236
2019-01-26T11:42:58.153Z,1276
2019-01-26T11:43:57.639Z,1340
2019-01-26T11:44:57.865Z,1456
2019-01-26T11:45:58.143Z,1584
2019-01-26T11:46:57.822Z,1700
2019-01-26T11:47:58.058Z,1740
2019-01-26T11:48:58.041Z,1780
2019-01-26T11:49:58.020Z,1660
2019-01-26T11:50:58.001Z,1544
2019-01-26T11:51:57.739Z,1508
2019-01-26T11:52:57.987Z,1528
2019-01-26T11:53:57.962Z,1624
2019-01-26T11:54:57.689Z,1600
2019-01-26T11:55:57.912Z,1580
2019-01-26T11:56:57.935Z,1660
2019-01-26T11:57:57.884Z,1676
2019-01-26T11:58:57.870Z,1608
2019-01-26T11:59:57.598Z,1552
2019-01-26T12:01:04.308Z,1604
2019-01-26T12:01:57.807Z,1644
2019-01-26T12:02:57.543Z,1796
2019-01-26T12:03:57.775Z,1840
2019-01-26T12:04:57.758Z,1816
2019-01-26T12:05:57.486Z,1824
2019-01-26T12:06:57.721Z,1776
2019-01-26T12:07:57.453Z,1848
2019-01-26T12:08:57.694Z,1900
2019-01-26T12:09:57.666Z,1960
2019-01-26T12:10:57.651Z,1916
2019-01-26T12:11:57.643Z,1788
2019-01-26T12:12:57.624Z,1784
2019-01-26T12:13:57.593Z,1932
2019-01-26T12:14:57.580Z,1992
2019-01-26T12:15:57.714Z,1936
2019-01-26T12:16:57.545Z,1844
2019-01-26T12:17:57.523Z,1768
2019-01-26T12:18:57.502Z,1860
2019-01-26T12:19:57.492Z,1908
2019-01-26T12:20:57.520Z,1900
2019-01-26T12:21:57.508Z,1820
2019-01-26T12:22:57.440Z,1836
2019-01-26T12:23:57.418Z,1908
2019-01-26T12:24:57.403Z,1872
2019-01-26T12:25:57.389Z,1876
2019-01-26T12:26:57.363Z,1840
2019-01-26T12:27:57.103Z,1824
2019-01-26T12:28:56.590Z,1832
2019-01-26T12:29:57.311Z,1764
2019-01-26T12:30:57.302Z,1688
2019-01-26T12:31:57.282Z,1732
2019-01-26T12:32:57.255Z,1716
2019-01-26T12:33:57.241Z,1732
2019-01-26T12:34:56.986Z,1780
2019-01-26T12:35:57.214Z,1720
2019-01-26T12:36:57.188Z,1728
2019-01-26T12:37:57.170Z,1796
2019-01-26T12:38:56.908Z,1812
2019-01-26T12:39:56.900Z,1756
2019-01-26T12:40:57.168Z,1740
2019-01-26T12:41:56.859Z,1860
2019-01-26T12:42:57.092Z,2000
2019-01-26T12:43:56.815Z,1884
2019-01-26T12:44:56.801Z,1788
2019-01-26T12:45:56.777Z,1764
2019-01-26T12:46:57.015Z,1872
2019-01-26T12:47:56.993Z,1904
2019-01-26T12:48:56.976Z,1924
2019-01-26T12:49:56.958Z,1916
2019-01-26T12:50:56.690Z,1768
2019-01-26T12:51:56.675Z,1748
2019-01-26T12:52:56.908Z,1672
2019-01-26T12:53:56.642Z,1664
2019-01-26T12:54:56.869Z,1756
2019-01-26T12:55:56.854Z,1716
2019-01-26T12:56:56.842Z,1600
2019-01-26T12:57:56.829Z,1588
2019-01-26T12:58:57.029Z,1632
2019-01-26T12:59:56.540Z,1552
2019-01-26T13:00:56.769Z,1548
2019-01-26T13:01:56.752Z,1652
2019-01-26T13:02:56.482Z,1684
2019-01-26T13:03:56.471Z,1612
2019-01-26T13:04:56.942Z,1560
2019-01-26T13:05:56.678Z,1520
2019-01-26T13:06:56.425Z,1508
2019-01-26T13:07:56.647Z,1664
2019-01-26T13:08:56.626Z,1752
2019-01-26T13:09:56.608Z,1668
2019-01-26T13:10:56.601Z,1664
2019-01-26T13:11:56.568Z,1660
2019-01-26T13:12:56.554Z,1664
2019-01-26T13:13:56.794Z,1560
2019-01-26T13:14:56.521Z,1484
2019-01-26T13:15:56.497Z,1524
2019-01-26T13:16:56.531Z,1640
2019-01-26T13:17:56.219Z,1692
2019-01-26T13:18:56.445Z,1760
2019-01-26T13:19:56.179Z,1684
2019-01-26T13:20:56.412Z,1624
2019-01-26T13:21:56.193Z,1608
2019-01-26T13:22:56.373Z,1628
2019-01-26T13:23:56.364Z,1768
2019-01-26T13:24:55.846Z,1764
2019-01-26T13:25:56.337Z,1700
2019-01-26T13:26:56.827Z,1692
2019-01-26T13:27:56.291Z,1744
2019-01-26T13:28:56.269Z,1840
2019-01-26T13:29:56.000Z,1916
2019-01-26T13:30:56.231Z,1812
2019-01-26T13:31:56.218Z,1620
2019-01-26T13:32:56.206Z,1536
2019-01-26T13:33:56.178Z,1540
2019-01-26T13:34:57.421Z,1544
2019-01-26T13:35:56.148Z,1412
2019-01-26T13:36:56.376Z,1376
2019-01-26T13:37:55.861Z,1400
2019-01-26T13:38:56.085Z,1432
2019-01-26T13:39:56.113Z,1404
2019-01-26T13:40:56.126Z,1364
2019-01-26T13:41:56.089Z,1352
2019-01-26T13:42:56.027Z,1336
2019-01-26T13:43:56.001Z,1360
2019-01-26T13:44:55.985Z,1328
2019-01-26T13:45:55.966Z,1280
2019-01-26T13:46:55.946Z,1308
2019-01-26T13:47:55.932Z,1300
2019-01-26T13:48:55.663Z,1388
2019-01-26T13:49:55.899Z,1536
2019-01-26T13:50:55.876Z,1548
2019-01-26T13:51:55.858Z,1496
2019-01-26T13:52:55.344Z,1496
2019-01-26T13:53:55.825Z,1612
2019-01-26T13:54:55.804Z,1616
2019-01-26T13:55:55.794Z,1632
2019-01-26T13:56:55.833Z,1712
2019-01-26T13:57:55.753Z,1788
2019-01-26T13:58:55.736Z,1860
2019-01-26T13:59:55.717Z,1824
2019-01-26T14:00:55.698Z,1716
2019-01-26T14:01:55.734Z,1756
2019-01-26T14:02:55.658Z,1784
2019-01-26T14:03:55.651Z,1736
2019-01-26T14:04:55.633Z,1592